Time;durP1;ratioP1;P1;durP2;ratioP2;P2;SDS_P1;SDS_P2;PMS_P1;PMS_P2;Temp;Humidity;BMP_temperature;BMP_pressure;BME280_temperature;BME280_humidity;BME280_pressure;Samples;Min_cycle;Max_cycle;Signal;HPM_P1;HPM_P2
2022/12/10 00:01:35;;;;;;;3.83;3.53;;;19.80;49.90;;;;;;5043266;28;43435;-60
2022/12/10 00:04:03;;;;;;;3.42;3.13;;;19.80;49.90;;;;;;5042334;28;43451;-60
2022/12/10 00:06:33;;;;;;;3.55;3.25;;;19.80;49.80;;;;;;5042157;28;44780;-60
2022/12/10 00:09:03;;;;;;;3.75;3.45;;;19.80;49.90;;;;;;5042536;28;43432;-60
2022/12/10 00:11:31;;;;;;;3.75;3.45;;;19.70;49.70;;;;;;5042525;28;43430;-60
2022/12/10 00:13:59;;;;;;;3.20;3.00;;;19.70;49.80;;;;;;5035697;28;43455;-60
2022/12/10 00:16:28;;;;;;;3.78;3.47;;;19.70;49.80;;;;;;5025346;28;43794;-60
2022/12/10 00:18:56;;;;;;;3.88;3.58;;;19.70;49.70;;;;;;5027963;28;43435;-60
2022/12/10 00:21:29;;;;;;;3.60;3.30;;;19.70;49.80;;;;;;5026699;28;43468;-60
2022/12/10 00:23:57;;;;;;;3.55;3.25;;;19.60;49.80;;;;;;5041940;28;43477;-60
2022/12/10 00:26:31;;;;;;;3.60;3.30;;;19.60;49.90;;;;;;5030367;28;44309;-60
2022/12/10 00:29:01;;;;;;;4.10;3.80;;;19.60;49.80;;;;;;5039281;28;43383;-60
2022/12/10 00:31:31;;;;;;;3.92;3.53;;;19.60;49.80;;;;;;5042377;28;43398;-60
2022/12/10 00:34:02;;;;;;;3.88;3.58;;;19.60;49.80;;;;;;5041448;28;43534;-60
2022/12/10 00:36:33;;;;;;;3.95;3.53;;;19.60;49.80;;;;;;5039993;28;43821;-60
2022/12/10 00:39:01;;;;;;;3.67;3.38;;;19.60;49.80;;;;;;5025383;28;43451;-60
2022/12/10 00:41:29;;;;;;;3.92;3.63;;;19.60;49.80;;;;;;5042234;28;43877;-60
2022/12/10 00:43:57;;;;;;;3.70;3.40;;;19.50;49.80;;;;;;5030611;28;43416;-60
2022/12/10 00:46:24;;;;;;;3.80;3.50;;;19.50;49.80;;;;;;5022245;28;44084;-60
2022/12/10 00:48:52;;;;;;;4.05;3.75;;;19.50;49.70;;;;;;5038394;28;43471;-61
2022/12/10 00:51:22;;;;;;;4.47;4.07;;;19.50;49.90;;;;;;5029356;28;43433;-60
2022/12/10 00:53:51;;;;;;;3.83;3.53;;;19.50;49.80;;;;;;5042055;28;43534;-61
2022/12/10 00:56:22;;;;;;;3.75;3.45;;;19.50;49.80;;;;;;5026485;28;45165;-60
2022/12/10 00:58:50;;;;;;;3.80;3.50;;;19.50;49.80;;;;;;5020273;28;43412;-60
2022/12/10 01:01:23;;;;;;;3.83;3.53;;;19.50;49.80;;;;;;5021627;28;43403;-60
2022/12/10 01:03:57;;;;;;;4.10;3.80;;;19.40;49.80;;;;;;5020718;28;43448;-60
2022/12/10 01:06:24;;;;;;;3.97;3.67;;;19.40;49.80;;;;;;5023834;28;43807;-60
2022/12/10 01:08:55;;;;;;;4.53;4.00;;;19.40;49.80;;;;;;5041477;28;43367;-60
2022/12/10 01:11:29;;;;;;;3.97;3.67;;;19.40;49.80;;;;;;5041686;28;43409;-60
2022/12/10 01:13:57;;;;;;;3.80;3.50;;;19.40;49.80;;;;;;5038474;28;43558;-60
2022/12/10 01:16:26;;;;;;;4.43;4.03;;;19.40;49.90;;;;;;5039921;28;44337;-60
2022/12/10 01:18:55;;;;;;;4.07;3.78;;;19.30;49.80;;;;;;5041425;28;43443;-61
2022/12/10 01:21:24;;;;;;;4.25;3.95;;;19.30;49.80;;;;;;5029275;28;43496;-60
2022/12/10 01:23:53;;;;;;;4.25;3.88;;;19.30;49.80;;;;;;5020726;28;43603;-61
2022/12/10 01:26:23;;;;;;;3.90;3.60;;;19.30;49.80;;;;;;5024986;28;43810;-61
2022/12/10 01:28:52;;;;;;;4.15;3.85;;;19.30;49.80;;;;;;5031494;28;43451;-60
2022/12/10 01:31:28;;;;;;;4.35;4.05;;;19.30;49.90;;;;;;5022348;28;43411;-60
2022/12/10 01:34:00;;;;;;;4.47;4.07;;;19.30;49.70;;;;;;5022805;28;43350;-60
2022/12/10 01:36:39;;;;;;;4.63;4.22;;;19.20;49.80;;;;;;5040958;28;44718;-61
2022/12/10 01:39:09;;;;;;;4.30;3.90;;;19.20;49.80;;;;;;5041051;28;44803;-60
2022/12/10 01:41:42;;;;;;;4.75;4.35;;;19.20;49.80;;;;;;5039943;28;43453;-61
2022/12/10 01:44:09;;;;;;;4.88;4.47;;;19.20;49.90;;;;;;5021775;28;43542;-60
2022/12/10 01:46:39;;;;;;;4.28;3.88;;;19.20;49.90;;;;;;5030514;28;44054;-61
2022/12/10 01:49:19;;;;;;;4.32;4.00;;;19.20;49.90;;;;;;5040637;28;43380;-60
2022/12/10 01:51:50;;;;;;;4.07;3.78;;;19.10;49.70;;;;;;5040979;28;43524;-61
2022/12/10 01:54:28;;;;;;;4.80;4.40;;;19.10;49.80;;;;;;5040970;28;43448;-60
2022/12/10 01:57:04;;;;;;;4.38;4.07;;;19.10;49.80;;;;;;5036346;28;44978;-61
2022/12/10 01:59:33;;;;;;;5.07;4.57;;;19.10;49.90;;;;;;5020887;28;43515;-60
2022/12/10 02:02:40;;;;;;;4.63;4.22;;;19.10;49.80;;;;;;5025226;28;43435;-60
2022/12/10 02:05:17;;;;;;;4.82;4.43;;;19.10;50.50;;;;;;5021544;28;43646;-60
2022/12/10 02:08:00;;;;;;;5.07;4.63;;;19.00;49.80;;;;;;5022122;28;44675;-61
2022/12/10 02:10:30;;;;;;;5.00;4.60;;;19.00;49.90;;;;;;5030598;28;43997;-61
2022/12/10 02:13:10;;;;;;;5.05;4.65;;;19.00;49.80;;;;;;5028102;28;43375;-60
2022/12/10 02:16:00;;;;;;;5.30;4.80;;;19.00;49.80;;;;;;5039499;28;43560;-60
2022/12/10 02:18:37;;;;;;;5.40;4.88;;;19.00;49.90;;;;;;5031044;28;43978;-61
2022/12/10 02:21:28;;;;;;;5.00;4.60;;;18.90;49.90;;;;;;5040117;28;43405;-61
2022/12/10 02:24:02;;;;;;;5.18;4.78;;;18.90;49.90;;;;;;5023158;28;43393;-61
2022/12/10 02:26:45;;;;;;;5.03;4.63;;;18.90;49.90;;;;;;5024114;28;43447;-60
2022/12/10 02:29:15;;;;;;;5.15;4.75;;;18.90;49.90;;;;;;5026383;28;44032;-60
2022/12/10 02:31:55;;;;;;;5.60;5.20;;;18.80;50.00;;;;;;5035981;28;43392;-60
2022/12/10 02:34:30;;;;;;;5.55;5.05;;;18.80;50.00;;;;;;5023245;28;43435;-60
2022/12/10 02:37:04;;;;;;;5.03;4.63;;;18.80;50.00;;;;;;5033945;28;43528;-61
2022/12/10 02:40:37;;;;;;;5.65;5.15;;;18.80;50.00;;;;;;5035796;28;44988;-60
2022/12/10 02:43:09;;;;;;;5.38;4.88;;;18.80;49.90;;;;;;5043186;28;44056;-60
2022/12/10 02:45:38;;;;;;;5.65;5.15;;;18.70;50.20;;;;;;5041991;28;43349;-60
2022/12/10 02:48:07;;;;;;;5.25;4.75;;;18.80;50.00;;;;;;5040160;28;43567;-60
2022/12/10 02:50:39;;;;;;;5.63;5.13;;;18.70;50.00;;;;;;5040383;28;45027;-60
2022/12/10 02:53:07;;;;;;;5.38;4.97;;;18.70;50.00;;;;;;5042981;28;43439;-60
2022/12/10 02:56:06;;;;;;;5.90;5.40;;;18.70;50.10;;;;;;5039300;28;43440;-60
2022/12/10 02:58:39;;;;;;;6.00;5.40;;;18.60;50.10;;;;;;5023423;28;43544;-61
2022/12/10 03:01:24;;;;;;;5.80;5.30;;;18.60;50.20;;;;;;5028861;28;44988;-60
2022/12/10 03:04:12;;;;;;;6.00;5.30;;;18.60;50.20;;;;;;5029469;28;43393;-61
2022/12/10 03:06:50;;;;;;;5.90;5.40;;;18.50;50.20;;;;;;5025247;28;43468;-60
2022/12/10 03:09:25;;;;;;;6.10;5.50;;;18.50;50.20;;;;;;5043644;28;43542;-60
2022/12/10 03:12:01;;;;;;;5.80;5.30;;;18.50;50.20;;;;;;5029695;28;43939;-60
2022/12/10 03:14:31;;;;;;;5.80;5.30;;;18.50;50.20;;;;;;5027066;28;43530;-60
2022/12/10 03:17:00;;;;;;;5.85;5.35;;;18.50;50.20;;;;;;5036426;28;43414;-60
2022/12/10 03:19:47;;;;;;;5.43;4.93;;;18.50;50.20;;;;;;5041458;28;43504;-60
2022/12/10 03:22:17;;;;;;;5.50;5.00;;;18.50;50.20;;;;;;5026022;28;45049;-60
2022/12/10 03:24:44;;;;;;;5.90;5.40;;;18.50;50.30;;;;;;5028202;28;43423;-60
2022/12/10 03:27:13;;;;;;;5.63;5.13;;;18.40;50.30;;;;;;5034375;28;43434;-60
2022/12/10 03:29:49;;;;;;;5.82;5.32;;;18.40;50.30;;;;;;5042980;28;43555;-60
2022/12/10 03:32:20;;;;;;;5.65;5.10;;;18.40;50.30;;;;;;5027194;28;44068;-60
2022/12/10 03:34:51;;;;;;;5.57;5.07;;;18.40;50.30;;;;;;5043229;28;44100;-60
2022/12/10 03:37:19;;;;;;;5.63;5.13;;;18.30;50.30;;;;;;5028519;28;43346;-60
2022/12/10 03:39:47;;;;;;;5.65;5.20;;;18.30;50.30;;;;;;5040840;28;43553;-60
2022/12/10 03:42:15;;;;;;;6.03;5.45;;;18.30;50.30;;;;;;5042322;28;44691;-60
2022/12/10 03:44:43;;;;;;;5.57;5.07;;;18.30;50.40;;;;;;5043039;28;43393;-60
2022/12/10 03:47:14;;;;;;;5.70;5.20;;;18.30;51.10;;;;;;5042951;28;43407;-60
2022/12/10 03:49:42;;;;;;;5.38;4.97;;;18.20;50.40;;;;;;5058267;28;43453;-60
2022/12/10 03:52:10;;;;;;;6.03;5.45;;;18.20;50.40;;;;;;5042634;28;44052;-60
2022/12/10 03:54:38;;;;;;;5.70;5.20;;;18.20;50.50;;;;;;5042469;28;43987;-60
2022/12/10 03:57:05;;;;;;;5.95;5.45;;;18.20;50.40;;;;;;5043074;28;43435;-60
2022/12/10 03:59:33;;;;;;;5.65;5.15;;;18.20;50.40;;;;;;5042491;28;43433;-61
2022/12/10 04:02:01;;;;;;;5.50;5.00;;;18.20;50.50;;;;;;5029210;28;43899;-60
2022/12/10 04:04:29;;;;;;;5.78;5.28;;;18.20;50.50;;;;;;5032989;28;43670;-60
2022/12/10 04:06:57;;;;;;;5.85;5.35;;;18.20;50.50;;;;;;5042290;28;43470;-60
2022/12/10 04:09:24;;;;;;;5.72;5.22;;;18.20;50.60;;;;;;5042647;28;43610;-60
2022/12/10 04:11:56;;;;;;;5.95;5.45;;;18.20;50.60;;;;;;5042259;28;44418;-60
2022/12/10 04:17:12;;;;;;;5.90;5.40;;;18.10;50.50;;;;;;5024714;28;43384;-60
2022/12/10 04:19:39;;;;;;;6.15;5.60;;;18.10;50.60;;;;;;5043047;28;43439;-60
2022/12/10 04:26:51;;;;;;;6.25;5.70;;;18.10;50.60;;;;;;5027309;28;43422;-61
2022/12/10 04:27:54;;;;;;;6.40;5.80;;;18.10;50.60;;;;;;5042093;28;43518;-61
2022/12/10 04:30:22;;;;;;;6.38;5.78;;;18.00;50.50;;;;;;5042024;28;43427;-61
2022/12/10 04:32:49;;;;;;;6.28;5.68;;;18.00;50.60;;;;;;5041652;28;44638;-61
2022/12/10 04:35:17;;;;;;;6.22;5.63;;;18.00;50.60;;;;;;5026649;28;43929;-60
2022/12/10 04:37:44;;;;;;;6.45;5.85;;;18.00;50.60;;;;;;5030614;28;43523;-61
2022/12/10 04:40:12;;;;;;;6.22;5.63;;;18.00;50.60;;;;;;5034933;28;43629;-61
2022/12/10 04:42:39;;;;;;;6.43;5.82;;;18.00;50.60;;;;;;5042110;28;43814;-60
2022/12/10 04:45:07;;;;;;;6.57;5.97;;;18.00;50.60;;;;;;5037399;28;43334;-60
2022/12/10 04:47:35;;;;;;;6.65;6.05;;;18.00;50.60;;;;;;5022573;28;43415;-60
2022/12/10 04:50:02;;;;;;;6.53;5.80;;;18.00;50.60;;;;;;5036034;28;43477;-60
2022/12/10 04:52:30;;;;;;;6.53;5.93;;;17.90;50.60;;;;;;5041793;28;44700;-60
2022/12/10 04:54:57;;;;;;;5.90;5.40;;;17.90;50.60;;;;;;5042323;28;43514;-61
2022/12/10 04:57:25;;;;;;;7.18;6.47;;;17.90;50.60;;;;;;5042331;28;43424;-61
2022/12/10 04:59:52;;;;;;;6.32;5.72;;;17.90;50.60;;;;;;5041230;28;43442;-60
2022/12/10 05:02:20;;;;;;;6.40;5.88;;;17.90;50.60;;;;;;5041669;28;43987;-61
2022/12/10 05:04:49;;;;;;;6.38;5.78;;;17.90;50.60;;;;;;5041496;28;43385;-60
2022/12/10 05:07:16;;;;;;;6.78;6.18;;;17.90;50.60;;;;;;5041856;28;43489;-60
2022/12/10 05:09:44;;;;;;;6.90;6.20;;;17.80;50.60;;;;;;5041596;28;43553;-61
2022/12/10 05:12:11;;;;;;;6.45;5.85;;;17.80;50.60;;;;;;5039658;28;43887;-60
2022/12/10 05:14:39;;;;;;;6.68;5.97;;;17.90;50.70;;;;;;5041865;28;43524;-61
2022/12/10 05:17:06;;;;;;;7.03;6.32;;;17.80;50.60;;;;;;5027783;28;43491;-60
2022/12/10 05:19:34;;;;;;;6.97;6.28;;;17.80;50.60;;;;;;5034793;28;43618;-60
2022/12/10 05:24:48;;;;;;;6.30;5.72;;;17.80;50.70;;;;;;5033038;28;43671;-60
2022/12/10 05:27:15;;;;;;;6.63;6.07;;;17.80;50.70;;;;;;5022279;28;43433;-61
2022/12/10 05:29:43;;;;;;;6.68;6.07;;;17.80;50.70;;;;;;5037465;28;43461;-61
2022/12/10 05:32:10;;;;;;;7.22;6.53;;;17.70;50.60;;;;;;5025320;28;43779;-60
2022/12/10 05:34:38;;;;;;;6.45;5.85;;;17.70;50.60;;;;;;5033497;28;43447;-60
2022/12/10 05:37:05;;;;;;;6.55;5.95;;;17.70;50.70;;;;;;5033986;28;43474;-61
2022/12/10 05:39:33;;;;;;;6.90;6.20;;;17.70;50.70;;;;;;5040853;28;43423;-60
2022/12/10 05:42:00;;;;;;;6.80;6.20;;;17.70;50.70;;;;;;5040697;28;44001;-61
2022/12/10 05:44:29;;;;;;;6.88;6.28;;;17.70;50.70;;;;;;5040993;28;43393;-60
2022/12/10 05:46:56;;;;;;;6.97;6.35;;;17.70;50.70;;;;;;5043254;28;43484;-60
2022/12/10 05:49:24;;;;;;;6.95;6.35;;;17.70;50.70;;;;;;5029665;28;43597;-60
2022/12/10 05:51:56;;;;;;;7.47;6.78;;;17.70;50.70;;;;;;5044565;28;43953;-60
2022/12/10 05:54:23;;;;;;;7.00;6.32;;;17.60;50.70;;;;;;5043683;28;43387;-60
2022/12/10 05:56:51;;;;;;;6.97;6.28;;;17.60;50.70;;;;;;5045338;28;43367;-60
2022/12/10 05:59:18;;;;;;;6.80;6.20;;;17.60;50.70;;;;;;5043217;28;43596;-60
2022/12/10 06:01:46;;;;;;;6.65;6.05;;;17.60;50.70;;;;;;5024726;28;44994;-60
2022/12/10 06:04:13;;;;;;;7.25;6.60;;;17.60;50.70;;;;;;5039476;28;43935;-60
2022/12/10 06:06:41;;;;;;;6.80;6.20;;;17.60;50.70;;;;;;5044496;28;43408;-60
2022/12/10 06:09:13;;;;;;;7.22;6.57;;;17.60;50.70;;;;;;5043832;28;43515;-60
2022/12/10 06:11:41;;;;;;;7.38;6.68;;;17.60;50.70;;;;;;5031525;28;44067;-60
2022/12/10 06:14:10;;;;;;;7.85;7.10;;;17.60;50.70;;;;;;5033424;28;43713;-60
2022/12/10 06:16:39;;;;;;;7.28;6.57;;;17.50;50.70;;;;;;5031515;28;43454;-60
2022/12/10 06:19:07;;;;;;;6.78;6.18;;;17.50;50.70;;;;;;5041001;28;43436;-60
2022/12/10 06:21:34;;;;;;;7.55;6.78;;;17.50;51.30;;;;;;5044569;28;43759;-60
2022/12/10 06:24:02;;;;;;;7.07;6.43;;;17.50;50.60;;;;;;5033268;28;43444;-60
2022/12/10 06:26:30;;;;;;;6.90;6.30;;;17.50;50.70;;;;;;5044467;28;43443;-60
2022/12/10 06:28:58;;;;;;;7.50;6.80;;;17.50;50.70;;;;;;5026945;28;43676;-60
2022/12/10 06:31:25;;;;;;;7.53;6.85;;;17.50;50.70;;;;;;5025056;28;43781;-60
2022/12/10 06:33:54;;;;;;;6.88;6.28;;;17.40;50.70;;;;;;5033788;28;43397;-60
2022/12/10 06:36:22;;;;;;;6.93;6.32;;;17.40;50.60;;;;;;5041264;28;43541;-61
2022/12/10 06:38:49;;;;;;;7.60;6.90;;;17.40;50.60;;;;;;5027968;28;43538;-61
2022/12/10 06:41:20;;;;;;;6.97;6.38;;;17.50;50.70;;;;;;5038179;28;44019;-61
2022/12/10 06:43:48;;;;;;;6.38;5.78;;;17.50;50.70;;;;;;5032833;28;43457;-61
2022/12/10 06:46:18;;;;;;;6.40;5.85;;;17.50;50.70;;;;;;5041514;28;43448;-60
2022/12/10 06:48:46;;;;;;;6.95;6.32;;;17.50;50.70;;;;;;5035527;28;43514;-60
2022/12/10 06:51:14;;;;;;;6.60;6.00;;;17.50;50.70;;;;;;5037004;28;43856;-60
2022/12/10 06:53:42;;;;;;;6.85;6.20;;;17.50;50.70;;;;;;5023091;28;44162;-60
2022/12/10 06:56:16;;;;;;;6.82;6.22;;;17.50;50.70;;;;;;5023861;28;43378;-60
2022/12/10 06:58:44;;;;;;;6.80;6.20;;;17.40;50.70;;;;;;5038399;28;43574;-61
2022/12/10 07:01:19;;;;;;;6.50;5.93;;;17.40;50.70;;;;;;5023684;28;43787;-61
2022/12/10 07:03:51;;;;;;;6.50;5.90;;;17.40;50.70;;;;;;5035933;28;43447;-60
2022/12/10 07:06:19;;;;;;;7.07;6.38;;;17.40;50.70;;;;;;5041432;28;43351;-60
2022/12/10 07:08:48;;;;;;;6.30;5.80;;;17.40;50.80;;;;;;5027942;28;43598;-60
2022/12/10 07:11:18;;;;;;;6.70;6.10;;;17.40;50.80;;;;;;5042983;28;43863;-60
2022/12/10 07:13:47;;;;;;;6.07;5.57;;;17.40;50.80;;;;;;5028622;28;43497;-61
2022/12/10 07:16:20;;;;;;;6.30;5.78;;;17.40;50.80;;;;;;5040095;28;43478;-61
2022/12/10 07:18:48;;;;;;;6.10;5.60;;;17.40;50.80;;;;;;5030206;28;43462;-61
2022/12/10 07:21:25;;;;;;;;;;;17.40;50.80;;;;;;5031731;28;44071;-60
2022/12/10 07:23:55;;;;;;;5.95;5.35;;;17.40;50.90;;;;;;5026918;28;43440;-60
2022/12/10 07:26:23;;;;;;;6.15;5.65;;;17.30;50.90;;;;;;5031526;28;43430;-61
2022/12/10 07:28:51;;;;;;;6.43;5.82;;;17.30;50.90;;;;;;5034346;28;43515;-60
2022/12/10 07:31:21;;;;;;;5.90;5.40;;;17.30;50.90;;;;;;5036919;28;44025;-60
2022/12/10 07:33:51;;;;;;;5.53;5.03;;;17.30;51.00;;;;;;5026627;28;43443;-60
2022/12/10 07:36:20;;;;;;;6.45;5.85;;;17.30;51.10;;;;;;5038532;28;43904;-60
2022/12/10 07:38:47;;;;;;;5.53;4.85;;;17.30;51.00;;;;;;5030334;28;43594;-60
2022/12/10 07:41:15;;;;;;;6.13;5.63;;;17.40;51.10;;;;;;5036759;28;44715;-60
2022/12/10 07:43:45;;;;;;;5.95;5.45;;;17.40;50.90;;;;;;5026845;28;43418;-60
2022/12/10 07:46:21;;;;;;;5.65;5.15;;;17.50;51.00;;;;;;5035539;28;43965;-61
2022/12/10 07:48:49;;;;;;;6.57;5.97;;;17.50;50.80;;;;;;5034771;28;43573;-61
2022/12/10 07:51:20;;;;;;;6.10;5.60;;;17.50;50.80;;;;;;5027473;28;44728;-61
2022/12/10 07:53:50;;;;;;;6.25;5.50;;;17.50;50.80;;;;;;5024471;28;44573;-61
2022/12/10 07:56:18;;;;;;;5.53;5.07;;;17.60;50.90;;;;;;5033999;28;43489;-61
2022/12/10 07:58:45;;;;;;;5.60;5.20;;;17.60;50.70;;;;;;5034092;28;43455;-61
2022/12/10 08:01:22;;;;;;;5.43;4.95;;;17.70;50.70;;;;;;5026662;28;45008;-61
2022/12/10 08:03:51;;;;;;;5.75;5.25;;;17.80;50.50;;;;;;5027870;28;43436;-61
2022/12/10 08:06:21;;;;;;;6.13;5.63;;;17.80;50.40;;;;;;5032564;28;43435;-61
2022/12/10 08:08:49;;;;;;;6.10;5.60;;;17.90;50.30;;;;;;5035798;28;44007;-61
2022/12/10 08:11:19;;;;;;;6.57;6.03;;;18.00;50.10;;;;;;5034924;28;43782;-61
2022/12/10 08:13:47;;;;;;;5.70;5.20;;;18.00;50.10;;;;;;5038320;28;43450;-62
2022/12/10 08:16:25;;;;;;;7.97;6.20;;;18.10;50.00;;;;;;5031447;28;43444;-59
2022/12/10 08:18:56;;;;;;;5.68;5.13;;;18.10;49.90;;;;;;5031187;28;43353;-61
2022/12/10 08:21:27;;;;;;;8.32;5.57;;;18.20;49.90;;;;;;5026617;28;43893;-61
2022/12/10 08:23:55;;;;;;;6.40;5.80;;;18.30;49.80;;;;;;5032845;28;43926;-61
2022/12/10 08:26:25;;;;;;;7.80;5.60;;;18.40;49.70;;;;;;5027542;28;44014;-61
2022/12/10 08:28:55;;;;;;;6.23;5.40;;;18.40;49.70;;;;;;5031320;28;43455;-60
2022/12/10 08:31:24;;;;;;;6.10;5.50;;;18.50;50.10;;;;;;5029137;28;43764;-61
2022/12/10 08:33:52;;;;;;;5.97;5.38;;;18.60;49.60;;;;;;5027008;28;43458;-59
2022/12/10 08:36:20;;;;;;;6.85;5.40;;;18.60;49.40;;;;;;5030817;28;43420;-60
2022/12/10 08:38:48;;;;;;;6.20;5.60;;;18.70;49.50;;;;;;5026490;28;43549;-61
2022/12/10 08:41:18;;;;;;;5.72;5.22;;;18.70;49.60;;;;;;5027802;28;43624;-62
2022/12/10 08:43:46;;;;;;;5.70;5.20;;;18.80;49.20;;;;;;5031570;28;43924;-63
2022/12/10 08:46:15;;;;;;;5.35;4.82;;;18.80;49.40;;;;;;5031100;28;43444;-62
2022/12/10 08:48:43;;;;;;;6.13;5.53;;;18.90;49.40;;;;;;5032963;28;43526;-61
2022/12/10 08:51:14;;;;;;;6.28;5.68;;;19.00;50.00;;;;;;5036617;28;44028;-62
2022/12/10 08:53:41;;;;;;;;;;;19.10;49.10;;;;;;5028006;28;43542;-64
2022/12/10 08:56:09;;;;;;;6.10;5.50;;;19.20;49.20;;;;;;5023177;28;43391;-63
2022/12/10 08:58:37;;;;;;;6.38;5.78;;;19.20;49.00;;;;;;5035521;28;43480;-61
2022/12/10 09:01:14;;;;;;;6.00;5.40;;;19.40;49.00;;;;;;5030555;28;44965;-59
2022/12/10 09:03:42;;;;;;;6.38;5.78;;;19.40;49.00;;;;;;5026618;28;43487;-61
2022/12/10 09:06:14;;;;;;;8.30;5.93;;;19.50;48.60;;;;;;5027083;28;43591;-60
2022/12/10 09:08:42;;;;;;;6.33;5.83;;;19.60;48.30;;;;;;5030712;28;43428;-62
2022/12/10 09:11:20;;;;;;;6.38;5.78;;;19.70;48.30;;;;;;5026469;28;44214;-62
2022/12/10 09:13:49;;;;;;;6.75;6.00;;;19.80;48.10;;;;;;5032861;28;43428;-58
2022/12/10 09:16:17;;;;;;;6.53;5.93;;;19.80;48.10;;;;;;5027354;28;43457;-62
2022/12/10 09:18:44;;;;;;;5.78;5.28;;;19.90;47.90;;;;;;5027511;28;43569;-60
2022/12/10 09:21:16;;;;;;;5.80;5.20;;;20.00;48.10;;;;;;5024959;28;44101;-60
2022/12/10 09:23:43;;;;;;;5.67;5.17;;;20.10;48.10;;;;;;5036693;28;43951;-62
2022/12/10 09:26:14;;;;;;;6.10;5.50;;;20.10;48.00;;;;;;5025464;28;43415;-61
2022/12/10 09:28:43;;;;;;;6.03;5.53;;;20.20;47.80;;;;;;5032916;28;43897;-60
2022/12/10 09:31:11;;;;;;;6.50;5.65;;;20.30;47.80;;;;;;5033787;28;43763;-60
2022/12/10 09:33:48;;;;;;;6.78;5.93;;;20.40;47.70;;;;;;5028931;28;44104;-62
2022/12/10 09:36:15;;;;;;;5.75;5.15;;;20.50;47.70;;;;;;5036644;28;43409;-62
2022/12/10 09:38:44;;;;;;;5.60;5.10;;;20.50;47.70;;;;;;5039895;28;43500;-62
2022/12/10 09:41:31;;;;;;;8.18;6.25;;;20.50;47.30;;;;;;5027597;28;44982;-62
2022/12/10 09:44:17;;;;;;;6.15;5.55;;;20.60;47.10;;;;;;5036728;28;43785;-62
2022/12/10 09:46:51;;;;;;;6.25;5.65;;;20.60;47.20;;;;;;5041050;28;43783;-62
2022/12/10 09:49:40;;;;;;;6.68;5.85;;;20.60;47.20;;;;;;5040388;28;43450;-63
2022/12/10 09:52:13;;;;;;;7.15;5.85;;;20.60;47.10;;;;;;5027649;28;44700;-62
2022/12/10 09:54:53;;;;;;;6.15;5.60;;;20.60;47.10;;;;;;5029296;28;43910;-62
2022/12/10 09:57:31;;;;;;;6.38;5.65;;;20.60;47.00;;;;;;5038112;28;43434;-62
2022/12/10 10:00:31;;;;;;;6.45;5.85;;;20.60;47.20;;;;;;5020647;28;43442;-62
2022/12/10 10:03:00;;;;;;;5.78;5.25;;;20.60;47.00;;;;;;5023484;28;45155;-62
2022/12/10 10:05:37;;;;;;;6.28;5.68;;;20.60;47.00;;;;;;5037521;28;43797;-62
2022/12/10 10:08:12;;;;;;;5.70;5.20;;;20.60;47.20;;;;;;5026485;28;43503;-62
2022/12/10 10:10:41;;;;;;;6.00;5.50;;;20.60;47.20;;;;;;5027422;28;43561;-62
2022/12/10 10:13:15;;;;;;;6.38;5.75;;;20.60;47.10;;;;;;5026691;28;44829;-62
2022/12/10 10:15:44;;;;;;;5.93;5.43;;;20.60;47.10;;;;;;5024651;28;44317;-62
2022/12/10 10:18:38;;;;;;;6.55;5.80;;;20.60;47.20;;;;;;5021093;28;43488;-62
2022/12/10 10:21:15;;;;;;;6.20;5.60;;;20.60;47.20;;;;;;5029178;28;43500;-62
2022/12/10 10:23:45;;;;;;;7.38;6.03;;;20.50;47.10;;;;;;5025210;28;43803;-62
2022/12/10 10:26:13;;;;;;;6.35;5.75;;;20.50;47.10;;;;;;5026608;28;43942;-60
2022/12/10 10:28:41;;;;;;;5.75;5.25;;;20.50;47.20;;;;;;5033625;28;43472;-62
2022/12/10 10:31:19;;;;;;;6.10;5.60;;;20.50;47.40;;;;;;5027476;28;43419;-61
2022/12/10 10:33:56;;;;;;;6.03;5.53;;;20.50;47.20;;;;;;5027201;28;44196;-61
2022/12/10 10:36:27;;;;;;;7.72;6.97;;;20.50;47.50;;;;;;5029382;28;43814;-61
2022/12/10 10:38:55;;;;;;;7.00;6.30;;;20.50;46.80;;;;;;5034349;28;43408;-62
2022/12/10 10:41:25;;;;;;;7.13;6.40;;;20.40;47.10;;;;;;5035683;28;43466;-61
2022/12/10 10:44:01;;;;;;;6.72;6.13;;;20.40;47.30;;;;;;5036051;28;44740;-61
2022/12/10 10:46:29;;;;;;;6.90;6.30;;;20.30;47.30;;;;;;5030227;28;43800;-62
2022/12/10 10:49:24;;;;;;;7.22;6.47;;;20.30;47.30;;;;;;5029710;28;43419;-61
2022/12/10 10:51:57;;;;;;;6.90;6.20;;;20.30;47.40;;;;;;5036743;28;43494;-62
2022/12/10 10:54:39;;;;;;;6.93;6.22;;;20.30;47.50;;;;;;5027283;28;44813;-62
2022/12/10 10:57:20;;;;;;;7.38;5.78;;;20.30;47.60;;;;;;5036294;28;43766;-62
2022/12/10 10:59:48;;;;;;;6.43;5.72;;;20.30;47.60;;;;;;5023600;28;43460;-63
2022/12/10 11:02:35;;;;;;;7.90;6.20;;;20.40;47.60;;;;;;5040104;28;43514;-63
2022/12/10 11:05:07;;;;;;;6.63;5.82;;;20.50;47.70;;;;;;5026489;28;45019;-62
2022/12/10 11:07:40;;;;;;;7.18;6.45;;;20.50;47.60;;;;;;5035929;28;43738;-62
2022/12/10 11:10:20;;;;;;;7.85;5.72;;;20.60;47.60;;;;;;5028865;28;43530;-62
2022/12/10 11:13:04;;;;;;;8.00;6.07;;;20.60;47.50;;;;;;5025817;28;43388;-62
2022/12/10 11:15:31;;;;;;;7.78;6.60;;;20.70;47.70;;;;;;5035402;28;44067;-62
2022/12/10 11:18:00;;;;;;;9.63;7.18;;;20.70;47.50;;;;;;5027233;28;43963;-61
2022/12/10 11:20:34;;;;;;;6.70;6.00;;;20.70;47.50;;;;;;5038336;28;43578;-62
2022/12/10 11:23:11;;;;;;;;;;;20.80;47.50;;;;;;5034961;28;43474;-62
2022/12/10 11:25:44;;;;;;;7.22;6.03;;;20.80;47.60;;;;;;5023536;28;44204;-61
2022/12/10 11:28:14;;;;;;;7.72;6.60;;;20.70;47.50;;;;;;5027050;28;43743;-61
2022/12/10 11:30:53;;;;;;;7.68;6.25;;;20.80;47.60;;;;;;5034862;28;43444;-62
2022/12/10 11:33:30;;;;;;;7.93;6.32;;;20.80;47.60;;;;;;5027334;28;43523;-62
2022/12/10 11:36:25;;;;;;;9.50;6.90;;;20.70;47.50;;;;;;5027507;28;44712;-62
2022/12/10 11:39:13;;;;;;;8.45;6.75;;;20.70;47.40;;;;;;5029866;28;43737;-62
2022/12/10 11:42:03;;;;;;;7.18;5.72;;;20.60;47.50;;;;;;5035999;28;43407;-61
2022/12/10 11:44:42;;;;;;;7.65;6.15;;;20.60;47.70;;;;;;5034370;28;43536;-62
2022/12/10 11:47:25;;;;;;;9.10;6.70;;;20.60;47.70;;;;;;5039685;28;44956;-61
2022/12/10 11:50:09;;;;;;;8.75;6.13;;;20.60;47.70;;;;;;5040255;28;43435;-62
2022/12/10 11:52:58;;;;;;;8.15;6.22;;;20.60;48.40;;;;;;5026002;28;43590;-61
2022/12/10 11:55:47;;;;;;;7.72;5.65;;;20.50;47.80;;;;;;5026287;28;43948;-62
2022/12/10 11:58:58;;;;;;;8.68;6.28;;;20.50;47.90;;;;;;5024876;28;45165;-61
2022/12/10 12:01:28;;;;;;;7.90;6.35;;;20.50;47.90;;;;;;5027968;28;43467;-61
2022/12/10 12:04:22;;;;;;;7.13;5.87;;;20.40;48.00;;;;;;5030814;28;43483;-61
2022/12/10 12:06:56;;;;;;;8.05;5.75;;;20.40;48.00;;;;;;5035001;28;43569;-60
2022/12/10 12:09:35;;;;;;;8.77;6.32;;;20.40;48.80;;;;;;5038920;28;44702;-62
2022/12/10 12:12:20;;;;;;;7.20;5.80;;;20.40;48.10;;;;;;5030786;28;43584;-62
2022/12/10 12:14:54;;;;;;;6.85;5.88;;;20.40;48.10;;;;;;5035207;28;43413;-61
2022/12/10 12:17:37;;;;;;;6.63;5.70;;;20.40;48.00;;;;;;5029725;28;43388;-61
2022/12/10 12:20:15;;;;;;;7.03;5.93;;;20.40;48.10;;;;;;5030361;28;44831;-61
2022/12/10 12:23:06;;;;;;;7.57;6.10;;;20.40;48.10;;;;;;5036647;28;43471;-62
2022/12/10 12:25:45;;;;;;;8.05;6.07;;;20.40;48.10;;;;;;5033804;28;43479;-62
2022/12/10 12:28:31;;;;;;;9.25;6.18;;;20.40;48.20;;;;;;5028885;28;43426;-61
2022/12/10 12:31:13;;;;;;;7.25;6.15;;;20.30;48.40;;;;;;5025165;28;44641;-61
2022/12/10 12:33:59;;;;;;;9.50;6.72;;;20.30;48.20;;;;;;5035412;28;43848;-61
2022/12/10 12:36:34;;;;;;;8.75;6.45;;;20.30;48.30;;;;;;5032778;28;43513;-61
2022/12/10 12:39:13;;;;;;;10.60;6.88;;;20.30;48.30;;;;;;5025630;28;43610;-61
2022/12/10 12:41:51;;;;;;;8.80;7.25;;;20.20;48.40;;;;;;5023283;28;44065;-61
2022/12/10 12:44:32;;;;;;;7.55;6.15;;;20.20;48.40;;;;;;5032343;28;43684;-61
2022/12/10 12:47:22;;;;;;;7.15;6.35;;;20.20;48.50;;;;;;5023311;28;43613;-62
2022/12/10 12:49:52;;;;;;;8.98;6.65;;;20.10;48.40;;;;;;5025921;28;43693;-62
2022/12/10 12:52:48;;;;;;;7.57;6.30;;;20.10;48.40;;;;;;5028040;28;44836;-61
2022/12/10 12:55:53;;;;;;;7.03;5.90;;;20.10;48.50;;;;;;5023413;28;44018;-61
2022/12/10 12:58:47;;;;;;;7.80;5.93;;;20.10;48.50;;;;;;5028450;28;43531;-63
2022/12/10 13:01:41;;;;;;;6.22;5.60;;;20.10;48.60;;;;;;5024786;28;43553;-61
2022/12/10 13:04:10;;;;;;;7.93;5.90;;;20.00;48.50;;;;;;5024327;28;44407;-61
2022/12/10 13:06:39;;;;;;;6.20;5.60;;;20.00;48.50;;;;;;5031335;28;44278;-61
2022/12/10 13:09:12;;;;;;;6.60;5.70;;;20.10;48.40;;;;;;5033690;28;43515;-61
2022/12/10 13:12:15;;;;;;;7.40;5.60;;;20.10;48.40;;;;;;5029873;28;43573;-61
2022/12/10 13:15:15;;;;;;;6.97;5.57;;;20.10;48.30;;;;;;5024307;28;44681;-60
2022/12/10 13:18:20;;;;;;;8.18;6.32;;;20.20;48.30;;;;;;5026028;28;43530;-61
2022/12/10 13:21:12;;;;;;;6.82;5.15;;;20.10;48.30;;;;;;5023704;28;43872;-61
2022/12/10 13:23:51;;;;;;;7.43;5.55;;;20.10;48.30;;;;;;5027233;28;43474;-63
2022/12/10 13:26:28;;;;;;;5.80;5.20;;;20.20;48.30;;;;;;5027942;28;44968;-62
2022/12/10 13:29:12;;;;;;;7.07;6.20;;;20.10;48.30;;;;;;5024981;28;43502;-61